sensor_id;sensor_type;location;lat;lon;timestamp;P1;durP1;ratioP1;P2;durP2;ratioP2
5149;SDS011;2593;52.466;13.436;2022-12-08T00:01:03;6.70;;;4.50;;
5149;SDS011;2593;52.466;13.436;2022-12-08T00:03:34;11.20;;;4.90;;
5149;SDS011;2593;52.466;13.436;2022-12-08T00:06:01;9.13;;;5.10;;
5149;SDS011;2593;52.466;13.436;2022-12-08T00:08:46;14.03;;;5.20;;
5149;SDS011;2593;52.466;13.436;2022-12-08T00:11:31;8.80;;;5.33;;
5149;SDS011;2593;52.466;13.436;2022-12-08T00:13:57;7.80;;;3.97;;
5149;SDS011;2593;52.466;13.436;2022-12-08T00:16:22;11.50;;;4.30;;
5149;SDS011;2593;52.466;13.436;2022-12-08T00:18:48;7.57;;;4.80;;
5149;SDS011;2593;52.466;13.436;2022-12-08T00:21:14;12.07;;;5.97;;
5149;SDS011;2593;52.466;13.436;2022-12-08T00:23:39;17.93;;;5.57;;
5149;SDS011;2593;52.466;13.436;2022-12-08T00:26:05;8.00;;;5.00;;
5149;SDS011;2593;52.466;13.436;2022-12-08T00:28:31;11.33;;;5.70;;
5149;SDS011;2593;52.466;13.436;2022-12-08T00:30:58;13.77;;;5.03;;
5149;SDS011;2593;52.466;13.436;2022-12-08T00:33:26;13.37;;;5.40;;
5149;SDS011;2593;52.466;13.436;2022-12-08T00:35:52;8.63;;;4.63;;
5149;SDS011;2593;52.466;13.436;2022-12-08T00:38:17;9.27;;;5.07;;
5149;SDS011;2593;52.466;13.436;2022-12-08T00:40:46;7.10;;;4.97;;
5149;SDS011;2593;52.466;13.436;2022-12-08T00:43:12;11.70;;;6.10;;
5149;SDS011;2593;52.466;13.436;2022-12-08T00:45:38;10.70;;;6.20;;
5149;SDS011;2593;52.466;13.436;2022-12-08T00:48:04;11.10;;;6.17;;
5149;SDS011;2593;52.466;13.436;2022-12-08T00:50:30;6.50;;;5.40;;
5149;SDS011;2593;52.466;13.436;2022-12-08T00:52:56;10.47;;;5.77;;
5149;SDS011;2593;52.466;13.436;2022-12-08T00:55:21;8.23;;;5.10;;
5149;SDS011;2593;52.466;13.436;2022-12-08T00:57:47;9.50;;;5.03;;
5149;SDS011;2593;52.466;13.436;2022-12-08T01:00:13;8.83;;;5.70;;
5149;SDS011;2593;52.466;13.436;2022-12-08T01:02:39;15.83;;;7.07;;
5149;SDS011;2593;52.466;13.436;2022-12-08T01:05:05;10.80;;;5.97;;
5149;SDS011;2593;52.466;13.436;2022-12-08T01:07:31;11.40;;;6.73;;
5149;SDS011;2593;52.466;13.436;2022-12-08T01:09:57;21.60;;;7.63;;
5149;SDS011;2593;52.466;13.436;2022-12-08T01:12:22;12.47;;;7.47;;
5149;SDS011;2593;52.466;13.436;2022-12-08T01:14:49;11.00;;;6.03;;
5149;SDS011;2593;52.466;13.436;2022-12-08T01:17:14;12.17;;;6.83;;
5149;SDS011;2593;52.466;13.436;2022-12-08T01:19:40;11.20;;;6.53;;
5149;SDS011;2593;52.466;13.436;2022-12-08T01:22:05;18.10;;;5.77;;
5149;SDS011;2593;52.466;13.436;2022-12-08T01:24:31;10.23;;;4.90;;
5149;SDS011;2593;52.466;13.436;2022-12-08T01:26:57;17.53;;;5.27;;
5149;SDS011;2593;52.466;13.436;2022-12-08T01:29:22;7.83;;;5.07;;
5149;SDS011;2593;52.466;13.436;2022-12-08T01:31:48;9.30;;;5.07;;
5149;SDS011;2593;52.466;13.436;2022-12-08T01:34:14;8.73;;;5.53;;
5149;SDS011;2593;52.466;13.436;2022-12-08T01:36:39;15.53;;;5.23;;
5149;SDS011;2593;52.466;13.436;2022-12-08T01:39:07;7.80;;;5.13;;
5149;SDS011;2593;52.466;13.436;2022-12-08T01:41:40;10.20;;;5.00;;
5149;SDS011;2593;52.466;13.436;2022-12-08T01:46:35;9.93;;;5.30;;
5149;SDS011;2593;52.466;13.436;2022-12-08T01:49:20;12.00;;;4.10;;
5149;SDS011;2593;52.466;13.436;2022-12-08T01:54:14;11.00;;;5.47;;
5149;SDS011;2593;52.466;13.436;2022-12-08T01:56:50;6.30;;;5.30;;
5149;SDS011;2593;52.466;13.436;2022-12-08T01:59:21;14.43;;;5.30;;
5149;SDS011;2593;52.466;13.436;2022-12-08T02:01:48;12.67;;;5.20;;
5149;SDS011;2593;52.466;13.436;2022-12-08T02:04:13;9.47;;;6.40;;
5149;SDS011;2593;52.466;13.436;2022-12-08T02:06:39;13.40;;;6.30;;
5149;SDS011;2593;52.466;13.436;2022-12-08T02:09:07;9.17;;;5.60;;
5149;SDS011;2593;52.466;13.436;2022-12-08T02:11:33;14.50;;;5.77;;
5149;SDS011;2593;52.466;13.436;2022-12-08T02:13:59;11.07;;;5.63;;
5149;SDS011;2593;52.466;13.436;2022-12-08T02:16:41;9.57;;;5.43;;
5149;SDS011;2593;52.466;13.436;2022-12-08T02:22:24;8.40;;;5.10;;
5149;SDS011;2593;52.466;13.436;2022-12-08T02:25:24;8.33;;;5.57;;
5149;SDS011;2593;52.466;13.436;2022-12-08T02:31:04;18.43;;;5.57;;
5149;SDS011;2593;52.466;13.436;2022-12-08T02:36:24;9.70;;;5.77;;
5149;SDS011;2593;52.466;13.436;2022-12-08T02:41:41;7.77;;;4.90;;
5149;SDS011;2593;52.466;13.436;2022-12-08T02:44:38;7.53;;;6.03;;
5149;SDS011;2593;52.466;13.436;2022-12-08T02:47:16;18.13;;;8.43;;
5149;SDS011;2593;52.466;13.436;2022-12-08T02:49:44;7.13;;;5.27;;
5149;SDS011;2593;52.466;13.436;2022-12-08T02:54:35;6.27;;;4.97;;
5149;SDS011;2593;52.466;13.436;2022-12-08T03:00:03;9.03;;;4.67;;
5149;SDS011;2593;52.466;13.436;2022-12-08T03:02:43;7.97;;;5.07;;
5149;SDS011;2593;52.466;13.436;2022-12-08T03:05:21;6.73;;;4.43;;
5149;SDS011;2593;52.466;13.436;2022-12-08T03:12:00;6.70;;;4.90;;
5149;SDS011;2593;52.466;13.436;2022-12-08T03:13:57;7.23;;;4.70;;
5149;SDS011;2593;52.466;13.436;2022-12-08T03:16:26;9.63;;;5.67;;
5149;SDS011;2593;52.466;13.436;2022-12-08T03:19:00;9.40;;;5.40;;
5149;SDS011;2593;52.466;13.436;2022-12-08T03:21:33;8.67;;;5.33;;
5149;SDS011;2593;52.466;13.436;2022-12-08T03:24:01;9.17;;;5.27;;
5149;SDS011;2593;52.466;13.436;2022-12-08T03:26:32;6.17;;;5.10;;
5149;SDS011;2593;52.466;13.436;2022-12-08T03:29:05;5.70;;;5.10;;
5149;SDS011;2593;52.466;13.436;2022-12-08T03:31:31;6.60;;;5.33;;
5149;SDS011;2593;52.466;13.436;2022-12-08T03:34:03;6.20;;;4.50;;
5149;SDS011;2593;52.466;13.436;2022-12-08T03:36:29;8.13;;;4.90;;
5149;SDS011;2593;52.466;13.436;2022-12-08T03:38:56;9.90;;;6.00;;
5149;SDS011;2593;52.466;13.436;2022-12-08T03:41:22;9.70;;;5.27;;
5149;SDS011;2593;52.466;13.436;2022-12-08T03:43:51;6.50;;;4.63;;
5149;SDS011;2593;52.466;13.436;2022-12-08T03:46:19;7.33;;;5.20;;
5149;SDS011;2593;52.466;13.436;2022-12-08T03:48:47;9.17;;;6.20;;
5149;SDS011;2593;52.466;13.436;2022-12-08T03:51:13;6.50;;;5.20;;
5149;SDS011;2593;52.466;13.436;2022-12-08T03:53:39;9.20;;;6.93;;
5149;SDS011;2593;52.466;13.436;2022-12-08T03:56:10;8.30;;;5.87;;
5149;SDS011;2593;52.466;13.436;2022-12-08T03:58:40;10.30;;;6.87;;
5149;SDS011;2593;52.466;13.436;2022-12-08T04:01:06;10.60;;;6.20;;
5149;SDS011;2593;52.466;13.436;2022-12-08T04:03:32;12.80;;;6.93;;
5149;SDS011;2593;52.466;13.436;2022-12-08T04:05:57;12.00;;;7.10;;
5149;SDS011;2593;52.466;13.436;2022-12-08T04:08:23;13.67;;;8.80;;
5149;SDS011;2593;52.466;13.436;2022-12-08T04:10:49;15.67;;;8.30;;
5149;SDS011;2593;52.466;13.436;2022-12-08T04:13:14;14.13;;;9.07;;
5149;SDS011;2593;52.466;13.436;2022-12-08T04:15:43;16.40;;;8.60;;
5149;SDS011;2593;52.466;13.436;2022-12-08T04:18:12;13.70;;;8.90;;
5149;SDS011;2593;52.466;13.436;2022-12-08T04:20:39;15.43;;;7.80;;
5149;SDS011;2593;52.466;13.436;2022-12-08T04:23:06;14.27;;;9.00;;
5149;SDS011;2593;52.466;13.436;2022-12-08T04:25:32;16.77;;;8.53;;
5149;SDS011;2593;52.466;13.436;2022-12-08T04:27:58;16.20;;;9.10;;
5149;SDS011;2593;52.466;13.436;2022-12-08T04:30:23;15.10;;;8.97;;
5149;SDS011;2593;52.466;13.436;2022-12-08T04:32:49;20.30;;;9.67;;
5149;SDS011;2593;52.466;13.436;2022-12-08T04:35:15;14.33;;;10.03;;
5149;SDS011;2593;52.466;13.436;2022-12-08T04:37:40;15.20;;;10.60;;
5149;SDS011;2593;52.466;13.436;2022-12-08T04:40:08;16.47;;;10.03;;
5149;SDS011;2593;52.466;13.436;2022-12-08T04:42:34;15.27;;;9.33;;
5149;SDS011;2593;52.466;13.436;2022-12-08T04:45:00;20.90;;;10.00;;
5149;SDS011;2593;52.466;13.436;2022-12-08T04:47:25;19.13;;;11.57;;
5149;SDS011;2593;52.466;13.436;2022-12-08T04:49:51;18.43;;;11.83;;
5149;SDS011;2593;52.466;13.436;2022-12-08T04:52:16;19.97;;;11.57;;
5149;SDS011;2593;52.466;13.436;2022-12-08T04:54:42;20.10;;;11.63;;
5149;SDS011;2593;52.466;13.436;2022-12-08T04:57:08;19.83;;;12.03;;
5149;SDS011;2593;52.466;13.436;2022-12-08T04:59:33;24.27;;;12.30;;
5149;SDS011;2593;52.466;13.436;2022-12-08T05:01:59;21.90;;;12.43;;
5149;SDS011;2593;52.466;13.436;2022-12-08T05:04:24;22.63;;;11.50;;
5149;SDS011;2593;52.466;13.436;2022-12-08T05:06:50;20.00;;;12.00;;
5149;SDS011;2593;52.466;13.436;2022-12-08T05:09:16;22.80;;;13.20;;
5149;SDS011;2593;52.466;13.436;2022-12-08T05:11:41;20.30;;;12.13;;
5149;SDS011;2593;52.466;13.436;2022-12-08T05:14:10;20.70;;;12.80;;
5149;SDS011;2593;52.466;13.436;2022-12-08T05:16:37;31.00;;;12.90;;
5149;SDS011;2593;52.466;13.436;2022-12-08T05:19:04;26.10;;;12.53;;
5149;SDS011;2593;52.466;13.436;2022-12-08T05:21:30;22.47;;;13.00;;
5149;SDS011;2593;52.466;13.436;2022-12-08T05:23:55;22.93;;;12.00;;
5149;SDS011;2593;52.466;13.436;2022-12-08T05:26:21;23.47;;;12.40;;
5149;SDS011;2593;52.466;13.436;2022-12-08T05:28:46;23.00;;;13.30;;
5149;SDS011;2593;52.466;13.436;2022-12-08T05:31:13;22.97;;;12.40;;
5149;SDS011;2593;52.466;13.436;2022-12-08T05:33:39;34.23;;;12.73;;
5149;SDS011;2593;52.466;13.436;2022-12-08T05:36:06;22.83;;;12.87;;
5149;SDS011;2593;52.466;13.436;2022-12-08T05:38:32;22.77;;;12.30;;
5149;SDS011;2593;52.466;13.436;2022-12-08T05:40:58;24.77;;;13.60;;
5149;SDS011;2593;52.466;13.436;2022-12-08T05:43:23;23.87;;;14.43;;
5149;SDS011;2593;52.466;13.436;2022-12-08T05:45:49;31.37;;;14.20;;
5149;SDS011;2593;52.466;13.436;2022-12-08T05:48:15;30.13;;;15.60;;
5149;SDS011;2593;52.466;13.436;2022-12-08T05:50:47;28.10;;;15.27;;
5149;SDS011;2593;52.466;13.436;2022-12-08T05:53:14;32.60;;;14.50;;
5149;SDS011;2593;52.466;13.436;2022-12-08T05:55:40;25.17;;;12.43;;
5149;SDS011;2593;52.466;13.436;2022-12-08T05:58:06;32.77;;;12.63;;
5149;SDS011;2593;52.466;13.436;2022-12-08T06:00:33;29.50;;;14.07;;
5149;SDS011;2593;52.466;13.436;2022-12-08T06:02:59;36.20;;;14.40;;
5149;SDS011;2593;52.466;13.436;2022-12-08T06:05:25;21.60;;;12.67;;
5149;SDS011;2593;52.466;13.436;2022-12-08T06:07:51;27.93;;;13.03;;
5149;SDS011;2593;52.466;13.436;2022-12-08T06:10:16;24.90;;;14.13;;
5149;SDS011;2593;52.466;13.436;2022-12-08T06:12:42;33.13;;;14.87;;
5149;SDS011;2593;52.466;13.436;2022-12-08T06:15:08;36.60;;;14.50;;
5149;SDS011;2593;52.466;13.436;2022-12-08T06:17:34;26.57;;;14.27;;
5149;SDS011;2593;52.466;13.436;2022-12-08T06:19:59;26.13;;;12.90;;
5149;SDS011;2593;52.466;13.436;2022-12-08T06:22:25;25.07;;;14.13;;
5149;SDS011;2593;52.466;13.436;2022-12-08T06:24:52;26.33;;;14.63;;
5149;SDS011;2593;52.466;13.436;2022-12-08T06:27:18;24.53;;;13.30;;
5149;SDS011;2593;52.466;13.436;2022-12-08T06:29:44;32.70;;;13.07;;
5149;SDS011;2593;52.466;13.436;2022-12-08T06:32:10;29.23;;;13.90;;
5149;SDS011;2593;52.466;13.436;2022-12-08T06:34:36;31.50;;;14.40;;
5149;SDS011;2593;52.466;13.436;2022-12-08T06:37:01;31.40;;;13.83;;
5149;SDS011;2593;52.466;13.436;2022-12-08T06:39:27;31.40;;;14.90;;
5149;SDS011;2593;52.466;13.436;2022-12-08T06:41:53;25.13;;;14.40;;
5149;SDS011;2593;52.466;13.436;2022-12-08T06:44:37;23.63;;;13.90;;
5149;SDS011;2593;52.466;13.436;2022-12-08T06:47:04;23.43;;;13.70;;
5149;SDS011;2593;52.466;13.436;2022-12-08T06:49:29;25.83;;;14.77;;
5149;SDS011;2593;52.466;13.436;2022-12-08T06:51:55;26.57;;;14.40;;
5149;SDS011;2593;52.466;13.436;2022-12-08T06:54:20;20.40;;;13.97;;
5149;SDS011;2593;52.466;13.436;2022-12-08T06:56:46;29.13;;;14.27;;
5149;SDS011;2593;52.466;13.436;2022-12-08T06:59:12;26.30;;;15.23;;
5149;SDS011;2593;52.466;13.436;2022-12-08T07:01:37;28.30;;;15.33;;
5149;SDS011;2593;52.466;13.436;2022-12-08T07:04:03;24.77;;;14.00;;
5149;SDS011;2593;52.466;13.436;2022-12-08T07:06:29;27.83;;;13.77;;
5149;SDS011;2593;52.466;13.436;2022-12-08T07:08:54;27.93;;;14.10;;
5149;SDS011;2593;52.466;13.436;2022-12-08T07:11:20;29.63;;;14.90;;
5149;SDS011;2593;52.466;13.436;2022-12-08T07:13:46;36.27;;;13.70;;
5149;SDS011;2593;52.466;13.436;2022-12-08T07:16:11;24.37;;;13.80;;
5149;SDS011;2593;52.466;13.436;2022-12-08T07:18:37;28.93;;;13.77;;
5149;SDS011;2593;52.466;13.436;2022-12-08T07:21:08;21.60;;;12.87;;
5149;SDS011;2593;52.466;13.436;2022-12-08T07:23:35;29.33;;;13.10;;
5149;SDS011;2593;52.466;13.436;2022-12-08T07:26:02;24.43;;;13.33;;
5149;SDS011;2593;52.466;13.436;2022-12-08T07:28:29;19.50;;;12.00;;
5149;SDS011;2593;52.466;13.436;2022-12-08T07:30:56;30.27;;;11.63;;
5149;SDS011;2593;52.466;13.436;2022-12-08T07:33:21;24.40;;;12.40;;
5149;SDS011;2593;52.466;13.436;2022-12-08T07:36:22;27.90;;;12.07;;
5149;SDS011;2593;52.466;13.436;2022-12-08T07:38:41;23.50;;;12.07;;
5149;SDS011;2593;52.466;13.436;2022-12-08T07:41:14;24.53;;;12.33;;
5149;SDS011;2593;52.466;13.436;2022-12-08T07:43:41;26.10;;;11.67;;
5149;SDS011;2593;52.466;13.436;2022-12-08T07:46:09;24.50;;;13.00;;
5149;SDS011;2593;52.466;13.436;2022-12-08T07:48:36;24.80;;;13.33;;
5149;SDS011;2593;52.466;13.436;2022-12-08T07:51:02;21.33;;;11.30;;
5149;SDS011;2593;52.466;13.436;2022-12-08T07:53:29;25.80;;;12.17;;
5149;SDS011;2593;52.466;13.436;2022-12-08T07:55:54;27.40;;;11.37;;
5149;SDS011;2593;52.466;13.436;2022-12-08T07:58:20;25.00;;;11.43;;
5149;SDS011;2593;52.466;13.436;2022-12-08T08:00:46;30.93;;;11.80;;
5149;SDS011;2593;52.466;13.436;2022-12-08T08:03:11;29.00;;;11.73;;
5149;SDS011;2593;52.466;13.436;2022-12-08T08:05:37;21.00;;;11.70;;
5149;SDS011;2593;52.466;13.436;2022-12-08T08:08:03;24.83;;;12.20;;
5149;SDS011;2593;52.466;13.436;2022-12-08T08:10:29;23.33;;;12.33;;
5149;SDS011;2593;52.466;13.436;2022-12-08T08:12:58;27.33;;;11.90;;
5149;SDS011;2593;52.466;13.436;2022-12-08T08:15:24;22.73;;;11.07;;
5149;SDS011;2593;52.466;13.436;2022-12-08T08:17:50;21.40;;;11.17;;
5149;SDS011;2593;52.466;13.436;2022-12-08T08:20:16;30.17;;;11.27;;
5149;SDS011;2593;52.466;13.436;2022-12-08T08:22:44;24.70;;;12.27;;
5149;SDS011;2593;52.466;13.436;2022-12-08T08:25:11;28.50;;;10.90;;
5149;SDS011;2593;52.466;13.436;2022-12-08T08:27:37;18.07;;;11.63;;
5149;SDS011;2593;52.466;13.436;2022-12-08T08:30:03;23.97;;;12.03;;
5149;SDS011;2593;52.466;13.436;2022-12-08T08:32:33;35.70;;;13.50;;
5149;SDS011;2593;52.466;13.436;2022-12-08T08:34:59;20.20;;;11.20;;
5149;SDS011;2593;52.466;13.436;2022-12-08T08:37:25;27.17;;;12.20;;
5149;SDS011;2593;52.466;13.436;2022-12-08T08:39:51;23.90;;;11.87;;
5149;SDS011;2593;52.466;13.436;2022-12-08T08:42:17;20.50;;;11.07;;
5149;SDS011;2593;52.466;13.436;2022-12-08T08:44:43;29.93;;;13.07;;
5149;SDS011;2593;52.466;13.436;2022-12-08T08:47:08;32.03;;;12.63;;
5149;SDS011;2593;52.466;13.436;2022-12-08T08:49:34;26.57;;;11.37;;
5149;SDS011;2593;52.466;13.436;2022-12-08T08:52:00;27.67;;;12.90;;
5149;SDS011;2593;52.466;13.436;2022-12-08T08:54:28;23.60;;;13.80;;
5149;SDS011;2593;52.466;13.436;2022-12-08T08:56:54;24.90;;;13.00;;
5149;SDS011;2593;52.466;13.436;2022-12-08T08:59:20;22.03;;;10.93;;
5149;SDS011;2593;52.466;13.436;2022-12-08T09:01:46;19.03;;;12.50;;
5149;SDS011;2593;52.466;13.436;2022-12-08T09:04:12;24.60;;;13.23;;
5149;SDS011;2593;52.466;13.436;2022-12-08T09:06:37;31.00;;;12.53;;
5149;SDS011;2593;52.466;13.436;2022-12-08T09:09:03;22.23;;;12.47;;
5149;SDS011;2593;52.466;13.436;2022-12-08T09:11:28;25.87;;;11.97;;
5149;SDS011;2593;52.466;13.436;2022-12-08T09:13:55;27.60;;;11.90;;
5149;SDS011;2593;52.466;13.436;2022-12-08T09:16:21;21.80;;;12.73;;
5149;SDS011;2593;52.466;13.436;2022-12-08T09:18:47;25.20;;;13.63;;
5149;SDS011;2593;52.466;13.436;2022-12-08T09:21:14;30.67;;;13.83;;
5149;SDS011;2593;52.466;13.436;2022-12-08T09:23:46;32.30;;;13.40;;
5149;SDS011;2593;52.466;13.436;2022-12-08T09:26:16;30.87;;;13.10;;
5149;SDS011;2593;52.466;13.436;2022-12-08T09:28:42;24.23;;;12.27;;
5149;SDS011;2593;52.466;13.436;2022-12-08T09:31:11;23.90;;;11.37;;
5149;SDS011;2593;52.466;13.436;2022-12-08T09:33:38;22.97;;;13.17;;
5149;SDS011;2593;52.466;13.436;2022-12-08T09:36:03;23.27;;;12.70;;
5149;SDS011;2593;52.466;13.436;2022-12-08T09:38:30;21.67;;;12.23;;
5149;SDS011;2593;52.466;13.436;2022-12-08T09:40:56;21.07;;;11.77;;
5149;SDS011;2593;52.466;13.436;2022-12-08T09:46:00;26.20;;;12.60;;
5149;SDS011;2593;52.466;13.436;2022-12-08T09:48:31;23.30;;;11.53;;
5149;SDS011;2593;52.466;13.436;2022-12-08T09:51:00;18.77;;;12.37;;
5149;SDS011;2593;52.466;13.436;2022-12-08T09:56:07;33.20;;;11.63;;
5149;SDS011;2593;52.466;13.436;2022-12-08T09:58:48;18.60;;;11.00;;
5149;SDS011;2593;52.466;13.436;2022-12-08T10:01:17;21.23;;;11.80;;
5149;SDS011;2593;52.466;13.436;2022-12-08T10:03:44;21.23;;;11.03;;
5149;SDS011;2593;52.466;13.436;2022-12-08T10:11:54;35.40;;;22.80;;
5149;SDS011;2593;52.466;13.436;2022-12-08T10:14:35;23.40;;;13.93;;
5149;SDS011;2593;52.466;13.436;2022-12-08T10:20:59;25.00;;;11.53;;
5149;SDS011;2593;52.466;13.436;2022-12-08T10:23:09;31.03;;;14.33;;
5149;SDS011;2593;52.466;13.436;2022-12-08T10:25:47;22.77;;;13.03;;
5149;SDS011;2593;52.466;13.436;2022-12-08T10:28:16;26.70;;;13.20;;
5149;SDS011;2593;52.466;13.436;2022-12-08T10:30:42;26.13;;;12.30;;
5149;SDS011;2593;52.466;13.436;2022-12-08T10:33:17;26.40;;;12.83;;
5149;SDS011;2593;52.466;13.436;2022-12-08T10:35:46;27.13;;;13.90;;
5149;SDS011;2593;52.466;13.436;2022-12-08T10:38:19;19.13;;;11.37;;
5149;SDS011;2593;52.466;13.436;2022-12-08T10:40:52;20.63;;;11.93;;
5149;SDS011;2593;52.466;13.436;2022-12-08T10:43:29;28.93;;;14.57;;
5149;SDS011;2593;52.466;13.436;2022-12-08T10:46:06;25.70;;;15.20;;
5149;SDS011;2593;52.466;13.436;2022-12-08T10:48:34;23.60;;;13.50;;
5149;SDS011;2593;52.466;13.436;2022-12-08T10:50:59;20.07;;;12.50;;
5149;SDS011;2593;52.466;13.436;2022-12-08T10:53:30;24.40;;;13.23;;
5149;SDS011;2593;52.466;13.436;2022-12-08T11:03:47;26.07;;;11.60;;
5149;SDS011;2593;52.466;13.436;2022-12-08T11:06:18;26.00;;;12.20;;
5149;SDS011;2593;52.466;13.436;2022-12-08T11:08:47;22.77;;;10.50;;
5149;SDS011;2593;52.466;13.436;2022-12-08T11:11:37;27.17;;;11.40;;
5149;SDS011;2593;52.466;13.436;2022-12-08T11:14:35;20.27;;;11.10;;
5149;SDS011;2593;52.466;13.436;2022-12-08T11:17:06;17.83;;;10.60;;
5149;SDS011;2593;52.466;13.436;2022-12-08T11:19:35;17.60;;;9.10;;
5149;SDS011;2593;52.466;13.436;2022-12-08T11:22:26;18.27;;;10.27;;
5149;SDS011;2593;52.466;13.436;2022-12-08T11:25:01;19.97;;;9.60;;
5149;SDS011;2593;52.466;13.436;2022-12-08T11:27:47;23.60;;;10.57;;
5149;SDS011;2593;52.466;13.436;2022-12-08T11:30:21;18.23;;;9.57;;
5149;SDS011;2593;52.466;13.436;2022-12-08T11:32:50;27.93;;;13.43;;
5149;SDS011;2593;52.466;13.436;2022-12-08T11:35:33;18.83;;;9.97;;
5149;SDS011;2593;52.466;13.436;2022-12-08T11:38:15;21.40;;;10.40;;
5149;SDS011;2593;52.466;13.436;2022-12-08T11:40:49;17.87;;;10.00;;
5149;SDS011;2593;52.466;13.436;2022-12-08T11:43:45;19.13;;;9.87;;
5149;SDS011;2593;52.466;13.436;2022-12-08T11:46:45;22.63;;;10.60;;
5149;SDS011;2593;52.466;13.436;2022-12-08T11:49:14;18.53;;;10.90;;
5149;SDS011;2593;52.466;13.436;2022-12-08T11:54:44;27.87;;;12.57;;
5149;SDS011;2593;52.466;13.436;2022-12-08T11:57:16;16.67;;;9.80;;
5149;SDS011;2593;52.466;13.436;2022-12-08T11:59:47;18.30;;;10.30;;
5149;SDS011;2593;52.466;13.436;2022-12-08T12:02:16;16.77;;;10.90;;
5149;SDS011;2593;52.466;13.436;2022-12-08T12:19:00;21.47;;;11.23;;
5149;SDS011;2593;52.466;13.436;2022-12-08T12:21:36;18.90;;;10.23;;
5149;SDS011;2593;52.466;13.436;2022-12-08T12:24:14;15.70;;;9.10;;
5149;SDS011;2593;52.466;13.436;2022-12-08T12:26:54;19.47;;;9.27;;
5149;SDS011;2593;52.466;13.436;2022-12-08T12:29:25;15.87;;;9.87;;
5149;SDS011;2593;52.466;13.436;2022-12-08T12:31:56;14.73;;;9.37;;
5149;SDS011;2593;52.466;13.436;2022-12-08T12:34:29;18.13;;;10.33;;
5149;SDS011;2593;52.466;13.436;2022-12-08T12:39:59;18.87;;;10.30;;
5149;SDS011;2593;52.466;13.436;2022-12-08T12:42:44;14.97;;;9.33;;
5149;SDS011;2593;52.466;13.436;2022-12-08T13:03:35;20.30;;;12.20;;
5149;SDS011;2593;52.466;13.436;2022-12-08T13:06:06;21.17;;;11.10;;
5149;SDS011;2593;52.466;13.436;2022-12-08T13:08:36;20.10;;;11.50;;
5149;SDS011;2593;52.466;13.436;2022-12-08T13:11:05;23.63;;;11.90;;
5149;SDS011;2593;52.466;13.436;2022-12-08T13:13:54;18.80;;;11.53;;
5149;SDS011;2593;52.466;13.436;2022-12-08T13:16:23;14.30;;;9.00;;
5149;SDS011;2593;52.466;13.436;2022-12-08T13:18:59;17.03;;;10.40;;
5149;SDS011;2593;52.466;13.436;2022-12-08T13:21:35;19.73;;;10.30;;
5149;SDS011;2593;52.466;13.436;2022-12-08T13:24:25;16.60;;;9.87;;
5149;SDS011;2593;52.466;13.436;2022-12-08T13:29:28;16.63;;;10.40;;
5149;SDS011;2593;52.466;13.436;2022-12-08T13:32:03;20.57;;;11.60;;
5149;SDS011;2593;52.466;13.436;2022-12-08T13:34:52;17.57;;;10.70;;
5149;SDS011;2593;52.466;13.436;2022-12-08T13:37:23;20.30;;;10.67;;
5149;SDS011;2593;52.466;13.436;2022-12-08T13:45:12;22.53;;;12.20;;
5149;SDS011;2593;52.466;13.436;2022-12-08T13:47:52;25.23;;;12.80;;
5149;SDS011;2593;52.466;13.436;2022-12-08T13:55:43;27.83;;;14.40;;
5149;SDS011;2593;52.466;13.436;2022-12-08T13:58:15;17.23;;;10.60;;
5149;SDS011;2593;52.466;13.436;2022-12-08T14:00:42;20.73;;;12.33;;
5149;SDS011;2593;52.466;13.436;2022-12-08T14:03:33;28.17;;;13.20;;
5149;SDS011;2593;52.466;13.436;2022-12-08T14:06:12;20.73;;;12.30;;
5149;SDS011;2593;52.466;13.436;2022-12-08T14:08:41;23.07;;;12.57;;
5149;SDS011;2593;52.466;13.436;2022-12-08T14:11:11;20.00;;;12.20;;
5149;SDS011;2593;52.466;13.436;2022-12-08T14:14:05;25.63;;;12.60;;
5149;SDS011;2593;52.466;13.436;2022-12-08T14:16:47;30.10;;;12.83;;
5149;SDS011;2593;52.466;13.436;2022-12-08T14:19:17;25.10;;;12.57;;
5149;SDS011;2593;52.466;13.436;2022-12-08T14:22:30;35.57;;;16.70;;
5149;SDS011;2593;52.466;13.436;2022-12-08T14:24:37;43.13;;;18.80;;
5149;SDS011;2593;52.466;13.436;2022-12-08T14:27:07;34.20;;;15.77;;
5149;SDS011;2593;52.466;13.436;2022-12-08T14:29:41;23.53;;;12.63;;
5149;SDS011;2593;52.466;13.436;2022-12-08T14:35:11;23.83;;;11.60;;
5149;SDS011;2593;52.466;13.436;2022-12-08T14:37:48;32.30;;;15.17;;
5149;SDS011;2593;52.466;13.436;2022-12-08T14:45:33;20.93;;;11.93;;
5149;SDS011;2593;52.466;13.436;2022-12-08T14:50:54;18.80;;;10.70;;
5149;SDS011;2593;52.466;13.436;2022-12-08T14:56:04;18.30;;;9.70;;
5149;SDS011;2593;52.466;13.436;2022-12-08T14:58:40;15.00;;;8.97;;
5149;SDS011;2593;52.466;13.436;2022-12-08T15:01:06;17.50;;;10.43;;
5149;SDS011;2593;52.466;13.436;2022-12-08T15:03:34;13.30;;;9.20;;
5149;SDS011;2593;52.466;13.436;2022-12-08T15:06:02;19.07;;;8.20;;
5149;SDS011;2593;52.466;13.436;2022-12-08T15:08:30;14.77;;;9.80;;
5149;SDS011;2593;52.466;13.436;2022-12-08T15:13:45;15.00;;;8.33;;
5149;SDS011;2593;52.466;13.436;2022-12-08T15:22:05;14.70;;;10.00;;
5149;SDS011;2593;52.466;13.436;2022-12-08T15:24:42;12.07;;;9.03;;
5149;SDS011;2593;52.466;13.436;2022-12-08T15:27:08;16.73;;;9.07;;
5149;SDS011;2593;52.466;13.436;2022-12-08T15:29:42;33.03;;;18.73;;
5149;SDS011;2593;52.466;13.436;2022-12-08T15:32:08;19.33;;;12.97;;
5149;SDS011;2593;52.466;13.436;2022-12-08T15:34:35;16.93;;;10.53;;
5149;SDS011;2593;52.466;13.436;2022-12-08T15:37:01;19.27;;;9.30;;
5149;SDS011;2593;52.466;13.436;2022-12-08T15:39:35;14.43;;;9.30;;
5149;SDS011;2593;52.466;13.436;2022-12-08T15:42:02;16.03;;;8.60;;
5149;SDS011;2593;52.466;13.436;2022-12-08T15:44:33;14.97;;;9.10;;
5149;SDS011;2593;52.466;13.436;2022-12-08T15:46:59;14.87;;;9.80;;
5149;SDS011;2593;52.466;13.436;2022-12-08T15:49:25;16.77;;;9.77;;
5149;SDS011;2593;52.466;13.436;2022-12-08T15:51:51;72.17;;;21.50;;
5149;SDS011;2593;52.466;13.436;2022-12-08T15:54:17;56.80;;;21.53;;
5149;SDS011;2593;52.466;13.436;2022-12-08T15:56:53;44.47;;;18.10;;
5149;SDS011;2593;52.466;13.436;2022-12-08T15:59:21;34.33;;;16.03;;
5149;SDS011;2593;52.466;13.436;2022-12-08T16:01:49;27.90;;;14.10;;
5149;SDS011;2593;52.466;13.436;2022-12-08T16:04:18;16.03;;;10.93;;
5149;SDS011;2593;52.466;13.436;2022-12-08T16:06:49;44.67;;;16.67;;
5149;SDS011;2593;52.466;13.436;2022-12-08T16:09:18;104.90;;;32.57;;
5149;SDS011;2593;52.466;13.436;2022-12-08T16:11:54;32.07;;;14.30;;
5149;SDS011;2593;52.466;13.436;2022-12-08T16:14:38;37.80;;;16.47;;
5149;SDS011;2593;52.466;13.436;2022-12-08T16:17:07;13.47;;;9.67;;
5149;SDS011;2593;52.466;13.436;2022-12-08T16:19:40;23.70;;;12.83;;
5149;SDS011;2593;52.466;13.436;2022-12-08T16:22:06;25.30;;;13.47;;
5149;SDS011;2593;52.466;13.436;2022-12-08T16:24:39;20.97;;;12.43;;
5149;SDS011;2593;52.466;13.436;2022-12-08T16:27:05;15.83;;;10.20;;
5149;SDS011;2593;52.466;13.436;2022-12-08T16:29:30;17.00;;;10.50;;
5149;SDS011;2593;52.466;13.436;2022-12-08T16:31:56;16.33;;;10.63;;
5149;SDS011;2593;52.466;13.436;2022-12-08T16:34:21;13.43;;;8.87;;
5149;SDS011;2593;52.466;13.436;2022-12-08T16:36:47;26.17;;;12.70;;
5149;SDS011;2593;52.466;13.436;2022-12-08T16:39:16;51.73;;;21.20;;
5149;SDS011;2593;52.466;13.436;2022-12-08T16:41:41;38.33;;;18.17;;
5149;SDS011;2593;52.466;13.436;2022-12-08T16:44:26;29.40;;;17.40;;
5149;SDS011;2593;52.466;13.436;2022-12-08T16:46:51;30.37;;;15.30;;
5149;SDS011;2593;52.466;13.436;2022-12-08T16:49:17;45.17;;;18.43;;
5149;SDS011;2593;52.466;13.436;2022-12-08T16:51:43;51.83;;;21.50;;
5149;SDS011;2593;52.466;13.436;2022-12-08T16:54:08;61.63;;;24.97;;
5149;SDS011;2593;52.466;13.436;2022-12-08T16:56:34;48.77;;;19.70;;